sensor_id;sensor_type;location;lat;lon;timestamp;P1;durP1;ratioP1;P2;durP2;ratioP2
3149;SDS011;32503;47.748;8.960;2023-03-31T00:02:12;3.40;;;3.10;;
3149;SDS011;32503;47.748;8.960;2023-03-31T00:04:39;3.40;;;3.20;;
3149;SDS011;32503;47.748;8.960;2023-03-31T00:07:10;3.77;;;3.57;;
3149;SDS011;32503;47.748;8.960;2023-03-31T00:09:38;4.47;;;3.20;;
3149;SDS011;32503;47.748;8.960;2023-03-31T00:12:10;4.30;;;3.80;;
3149;SDS011;32503;47.748;8.960;2023-03-31T00:14:39;4.13;;;3.73;;
3149;SDS011;32503;47.748;8.960;2023-03-31T00:17:06;6.47;;;3.60;;
3149;SDS011;32503;47.748;8.960;2023-03-31T00:19:33;3.70;;;3.20;;
3149;SDS011;32503;47.748;8.960;2023-03-31T00:22:01;3.67;;;3.00;;
3149;SDS011;32503;47.748;8.960;2023-03-31T00:24:29;3.63;;;3.40;;
3149;SDS011;32503;47.748;8.960;2023-03-31T00:26:57;5.10;;;4.53;;
3149;SDS011;32503;47.748;8.960;2023-03-31T00:29:24;3.50;;;3.20;;
3149;SDS011;32503;47.748;8.960;2023-03-31T00:31:53;3.83;;;3.53;;
3149;SDS011;32503;47.748;8.960;2023-03-31T00:34:20;4.43;;;3.67;;
3149;SDS011;32503;47.748;8.960;2023-03-31T00:36:48;5.17;;;4.00;;
3149;SDS011;32503;47.748;8.960;2023-03-31T00:39:16;3.90;;;3.60;;
3149;SDS011;32503;47.748;8.960;2023-03-31T00:41:44;6.40;;;4.17;;
3149;SDS011;32503;47.748;8.960;2023-03-31T00:44:12;3.80;;;3.50;;
3149;SDS011;32503;47.748;8.960;2023-03-31T00:46:49;5.23;;;4.13;;
3149;SDS011;32503;47.748;8.960;2023-03-31T00:49:22;4.43;;;3.93;;
3149;SDS011;32503;47.748;8.960;2023-03-31T00:51:56;3.93;;;3.60;;
3149;SDS011;32503;47.748;8.960;2023-03-31T00:54:29;6.13;;;3.90;;
3149;SDS011;32503;47.748;8.960;2023-03-31T00:56:58;4.23;;;3.83;;
3149;SDS011;32503;47.748;8.960;2023-03-31T00:59:28;4.67;;;4.13;;
3149;SDS011;32503;47.748;8.960;2023-03-31T01:02:00;3.90;;;3.60;;
3149;SDS011;32503;47.748;8.960;2023-03-31T01:04:31;3.77;;;3.47;;
3149;SDS011;32503;47.748;8.960;2023-03-31T01:07:04;4.97;;;3.60;;
3149;SDS011;32503;47.748;8.960;2023-03-31T01:09:36;5.40;;;3.43;;
3149;SDS011;32503;47.748;8.960;2023-03-31T01:12:06;4.03;;;3.37;;
3149;SDS011;32503;47.748;8.960;2023-03-31T01:14:35;5.83;;;3.20;;
3149;SDS011;32503;47.748;8.960;2023-03-31T01:17:04;6.03;;;3.27;;
3149;SDS011;32503;47.748;8.960;2023-03-31T01:19:36;4.47;;;3.60;;
3149;SDS011;32503;47.748;8.960;2023-03-31T01:25:32;5.40;;;4.90;;
3149;SDS011;32503;47.748;8.960;2023-03-31T01:28:30;4.77;;;4.10;;
3149;SDS011;32503;47.748;8.960;2023-03-31T01:34:32;3.93;;;3.73;;
3149;SDS011;32503;47.748;8.960;2023-03-31T01:41:20;3.83;;;3.40;;
3149;SDS011;32503;47.748;8.960;2023-03-31T01:44:05;4.10;;;3.80;;
3149;SDS011;32503;47.748;8.960;2023-03-31T01:46:44;7.13;;;4.63;;
3149;SDS011;32503;47.748;8.960;2023-03-31T01:49:21;6.73;;;3.97;;
3149;SDS011;32503;47.748;8.960;2023-03-31T01:51:59;3.93;;;3.63;;
3149;SDS011;32503;47.748;8.960;2023-03-31T01:54:31;6.60;;;3.83;;
3149;SDS011;32503;47.748;8.960;2023-03-31T01:57:08;4.53;;;3.87;;
3149;SDS011;32503;47.748;8.960;2023-03-31T01:59:41;5.13;;;4.70;;
3149;SDS011;32503;47.748;8.960;2023-03-31T02:02:24;3.80;;;3.60;;
3149;SDS011;32503;47.748;8.960;2023-03-31T02:04:56;4.53;;;4.23;;
3149;SDS011;32503;47.748;8.960;2023-03-31T02:07:31;4.13;;;3.83;;
3149;SDS011;32503;47.748;8.960;2023-03-31T02:10:03;5.87;;;4.43;;
3149;SDS011;32503;47.748;8.960;2023-03-31T02:12:37;5.33;;;4.70;;
3149;SDS011;32503;47.748;8.960;2023-03-31T02:15:09;5.10;;;4.70;;
3149;SDS011;32503;47.748;8.960;2023-03-31T02:17:40;10.00;;;4.67;;
3149;SDS011;32503;47.748;8.960;2023-03-31T02:20:10;4.33;;;4.03;;
3149;SDS011;32503;47.748;8.960;2023-03-31T02:22:42;4.97;;;4.63;;
3149;SDS011;32503;47.748;8.960;2023-03-31T02:25:13;4.90;;;4.50;;
3149;SDS011;32503;47.748;8.960;2023-03-31T02:27:46;4.90;;;4.40;;
3149;SDS011;32503;47.748;8.960;2023-03-31T02:30:18;4.03;;;3.73;;
3149;SDS011;32503;47.748;8.960;2023-03-31T02:32:46;5.93;;;4.27;;
3149;SDS011;32503;47.748;8.960;2023-03-31T02:35:15;6.73;;;5.10;;
3149;SDS011;32503;47.748;8.960;2023-03-31T02:37:46;5.30;;;4.90;;
3149;SDS011;32503;47.748;8.960;2023-03-31T02:40:15;6.57;;;4.53;;
3149;SDS011;32503;47.748;8.960;2023-03-31T02:42:47;6.13;;;5.00;;
3149;SDS011;32503;47.748;8.960;2023-03-31T02:48:10;4.47;;;3.83;;
3149;SDS011;32503;47.748;8.960;2023-03-31T02:50:55;4.37;;;3.93;;
3149;SDS011;32503;47.748;8.960;2023-03-31T02:53:52;6.50;;;4.83;;
3149;SDS011;32503;47.748;8.960;2023-03-31T02:56:49;15.33;;;5.03;;
3149;SDS011;32503;47.748;8.960;2023-03-31T02:59:40;6.13;;;5.07;;
3149;SDS011;32503;47.748;8.960;2023-03-31T03:02:17;5.77;;;5.30;;
3149;SDS011;32503;47.748;8.960;2023-03-31T03:04:56;5.40;;;4.97;;
3149;SDS011;32503;47.748;8.960;2023-03-31T03:07:41;5.93;;;4.30;;
3149;SDS011;32503;47.748;8.960;2023-03-31T03:10:14;8.13;;;5.37;;
3149;SDS011;32503;47.748;8.960;2023-03-31T03:12:53;6.37;;;5.77;;
3149;SDS011;32503;47.748;8.960;2023-03-31T03:15:31;6.33;;;5.73;;
3149;SDS011;32503;47.748;8.960;2023-03-31T03:18:02;5.83;;;4.73;;
3149;SDS011;32503;47.748;8.960;2023-03-31T03:20:31;8.70;;;6.40;;
3149;SDS011;32503;47.748;8.960;2023-03-31T03:22:59;8.30;;;5.63;;
3149;SDS011;32503;47.748;8.960;2023-03-31T03:25:27;4.40;;;4.10;;
3149;SDS011;32503;47.748;8.960;2023-03-31T03:27:54;7.03;;;5.63;;
3149;SDS011;32503;47.748;8.960;2023-03-31T03:30:21;11.63;;;6.27;;
3149;SDS011;32503;47.748;8.960;2023-03-31T03:32:50;8.80;;;7.43;;
3149;SDS011;32503;47.748;8.960;2023-03-31T03:35:18;6.13;;;5.77;;
3149;SDS011;32503;47.748;8.960;2023-03-31T03:37:45;6.30;;;5.70;;
3149;SDS011;32503;47.748;8.960;2023-03-31T03:40:12;5.13;;;4.70;;
3149;SDS011;32503;47.748;8.960;2023-03-31T03:42:40;5.90;;;5.47;;
3149;SDS011;32503;47.748;8.960;2023-03-31T03:45:07;5.40;;;4.97;;
3149;SDS011;32503;47.748;8.960;2023-03-31T03:47:35;6.83;;;6.07;;
3149;SDS011;32503;47.748;8.960;2023-03-31T03:50:04;5.77;;;5.30;;
3149;SDS011;32503;47.748;8.960;2023-03-31T03:52:32;6.30;;;4.97;;
3149;SDS011;32503;47.748;8.960;2023-03-31T03:54:59;6.93;;;6.33;;
3149;SDS011;32503;47.748;8.960;2023-03-31T03:57:27;5.73;;;4.87;;
3149;SDS011;32503;47.748;8.960;2023-03-31T03:59:54;5.30;;;4.90;;
3149;SDS011;32503;47.748;8.960;2023-03-31T04:02:21;5.60;;;5.20;;
3149;SDS011;32503;47.748;8.960;2023-03-31T04:04:48;8.77;;;7.00;;
3149;SDS011;32503;47.748;8.960;2023-03-31T04:07:18;6.40;;;5.60;;
3149;SDS011;32503;47.748;8.960;2023-03-31T04:09:45;8.23;;;7.20;;
3149;SDS011;32503;47.748;8.960;2023-03-31T04:12:12;6.87;;;6.30;;
3149;SDS011;32503;47.748;8.960;2023-03-31T04:14:39;10.37;;;7.60;;
3149;SDS011;32503;47.748;8.960;2023-03-31T04:17:06;10.93;;;8.17;;
3149;SDS011;32503;47.748;8.960;2023-03-31T04:19:34;7.77;;;7.07;;
3149;SDS011;32503;47.748;8.960;2023-03-31T04:22:02;8.57;;;7.63;;
3149;SDS011;32503;47.748;8.960;2023-03-31T04:24:30;7.63;;;6.73;;
3149;SDS011;32503;47.748;8.960;2023-03-31T04:26:58;9.27;;;5.87;;
3149;SDS011;32503;47.748;8.960;2023-03-31T04:29:26;7.63;;;6.97;;
3149;SDS011;32503;47.748;8.960;2023-03-31T04:31:57;5.27;;;4.90;;
3149;SDS011;32503;47.748;8.960;2023-03-31T04:34:25;8.63;;;5.73;;
3149;SDS011;32503;47.748;8.960;2023-03-31T04:36:58;6.00;;;5.60;;
3149;SDS011;32503;47.748;8.960;2023-03-31T04:39:27;6.33;;;5.73;;
3149;SDS011;32503;47.748;8.960;2023-03-31T04:41:57;6.10;;;5.30;;
3149;SDS011;32503;47.748;8.960;2023-03-31T04:44:25;6.97;;;6.40;;
3149;SDS011;32503;47.748;8.960;2023-03-31T04:46:52;10.23;;;6.40;;
3149;SDS011;32503;47.748;8.960;2023-03-31T04:49:20;6.30;;;5.80;;
3149;SDS011;32503;47.748;8.960;2023-03-31T04:51:47;7.03;;;5.33;;
3149;SDS011;32503;47.748;8.960;2023-03-31T04:54:14;5.40;;;5.00;;
3149;SDS011;32503;47.748;8.960;2023-03-31T04:56:41;9.03;;;5.87;;
3149;SDS011;32503;47.748;8.960;2023-03-31T04:59:10;6.93;;;5.50;;
3149;SDS011;32503;47.748;8.960;2023-03-31T05:01:37;8.07;;;5.93;;
3149;SDS011;32503;47.748;8.960;2023-03-31T05:04:08;7.03;;;5.80;;
3149;SDS011;32503;47.748;8.960;2023-03-31T05:06:36;5.63;;;5.23;;
3149;SDS011;32503;47.748;8.960;2023-03-31T05:09:03;8.40;;;5.10;;
3149;SDS011;32503;47.748;8.960;2023-03-31T05:11:30;5.97;;;5.47;;
3149;SDS011;32503;47.748;8.960;2023-03-31T05:13:57;7.37;;;6.67;;
3149;SDS011;32503;47.748;8.960;2023-03-31T05:16:26;6.73;;;5.80;;
3149;SDS011;32503;47.748;8.960;2023-03-31T05:18:53;6.13;;;5.63;;
3149;SDS011;32503;47.748;8.960;2023-03-31T05:21:20;6.07;;;4.63;;
3149;SDS011;32503;47.748;8.960;2023-03-31T05:23:47;4.83;;;4.53;;
3149;SDS011;32503;47.748;8.960;2023-03-31T05:26:15;5.10;;;4.80;;
3149;SDS011;32503;47.748;8.960;2023-03-31T05:28:42;5.87;;;5.40;;
3149;SDS011;32503;47.748;8.960;2023-03-31T05:31:09;5.80;;;5.30;;
3149;SDS011;32503;47.748;8.960;2023-03-31T05:33:39;6.07;;;5.57;;
3149;SDS011;32503;47.748;8.960;2023-03-31T05:36:07;5.27;;;4.87;;
3149;SDS011;32503;47.748;8.960;2023-03-31T05:38:36;6.37;;;5.30;;
3149;SDS011;32503;47.748;8.960;2023-03-31T05:41:03;5.93;;;5.43;;
3149;SDS011;32503;47.748;8.960;2023-03-31T05:43:30;4.90;;;4.53;;
3149;SDS011;32503;47.748;8.960;2023-03-31T05:45:57;6.07;;;5.50;;
3149;SDS011;32503;47.748;8.960;2023-03-31T05:48:24;6.10;;;5.40;;
3149;SDS011;32503;47.748;8.960;2023-03-31T05:50:56;5.60;;;5.20;;
3149;SDS011;32503;47.748;8.960;2023-03-31T05:53:23;5.93;;;5.43;;
3149;SDS011;32503;47.748;8.960;2023-03-31T05:55:55;5.20;;;4.80;;
3149;SDS011;32503;47.748;8.960;2023-03-31T05:58:23;6.57;;;5.97;;
3149;SDS011;32503;47.748;8.960;2023-03-31T06:00:59;6.43;;;6.03;;
3149;SDS011;32503;47.748;8.960;2023-03-31T06:03:29;7.53;;;5.83;;
3149;SDS011;32503;47.748;8.960;2023-03-31T06:05:58;6.60;;;6.10;;
3149;SDS011;32503;47.748;8.960;2023-03-31T06:08:25;5.17;;;4.87;;
3149;SDS011;32503;47.748;8.960;2023-03-31T06:10:53;16.27;;;10.33;;
3149;SDS011;32503;47.748;8.960;2023-03-31T06:13:20;17.33;;;12.73;;
3149;SDS011;32503;47.748;8.960;2023-03-31T06:15:51;17.40;;;10.17;;
3149;SDS011;32503;47.748;8.960;2023-03-31T06:18:20;7.00;;;6.40;;
3149;SDS011;32503;47.748;8.960;2023-03-31T06:20:47;7.37;;;6.53;;
3149;SDS011;32503;47.748;8.960;2023-03-31T06:23:16;8.77;;;6.27;;
3149;SDS011;32503;47.748;8.960;2023-03-31T06:25:43;9.10;;;7.50;;
3149;SDS011;32503;47.748;8.960;2023-03-31T06:28:10;14.23;;;6.73;;
3149;SDS011;32503;47.748;8.960;2023-03-31T06:30:37;12.70;;;6.80;;
3149;SDS011;32503;47.748;8.960;2023-03-31T06:33:04;11.57;;;6.93;;
3149;SDS011;32503;47.748;8.960;2023-03-31T06:35:31;7.07;;;6.57;;
3149;SDS011;32503;47.748;8.960;2023-03-31T06:37:59;6.83;;;6.27;;
3149;SDS011;32503;47.748;8.960;2023-03-31T06:40:27;6.27;;;5.77;;
3149;SDS011;32503;47.748;8.960;2023-03-31T06:42:54;7.13;;;6.37;;
3149;SDS011;32503;47.748;8.960;2023-03-31T06:45:21;8.77;;;7.40;;
3149;SDS011;32503;47.748;8.960;2023-03-31T06:47:48;9.37;;;7.93;;
3149;SDS011;32503;47.748;8.960;2023-03-31T06:50:15;8.17;;;7.37;;
3149;SDS011;32503;47.748;8.960;2023-03-31T06:52:42;7.30;;;6.60;;
3149;SDS011;32503;47.748;8.960;2023-03-31T06:55:10;8.00;;;7.17;;
3149;SDS011;32503;47.748;8.960;2023-03-31T06:57:40;7.37;;;6.60;;
3149;SDS011;32503;47.748;8.960;2023-03-31T07:00:08;8.07;;;7.23;;
3149;SDS011;32503;47.748;8.960;2023-03-31T07:02:36;7.27;;;6.40;;
3149;SDS011;32503;47.748;8.960;2023-03-31T07:05:03;13.20;;;7.40;;
3149;SDS011;32503;47.748;8.960;2023-03-31T07:07:32;9.00;;;7.47;;
3149;SDS011;32503;47.748;8.960;2023-03-31T07:09:59;9.47;;;7.70;;
3149;SDS011;32503;47.748;8.960;2023-03-31T07:12:26;9.20;;;7.00;;
3149;SDS011;32503;47.748;8.960;2023-03-31T07:14:56;8.47;;;6.40;;
3149;SDS011;32503;47.748;8.960;2023-03-31T07:17:23;7.63;;;7.03;;
3149;SDS011;32503;47.748;8.960;2023-03-31T07:19:50;8.47;;;6.40;;
3149;SDS011;32503;47.748;8.960;2023-03-31T07:22:17;4.97;;;4.60;;
3149;SDS011;32503;47.748;8.960;2023-03-31T07:24:44;6.67;;;6.13;;
3149;SDS011;32503;47.748;8.960;2023-03-31T07:27:11;5.50;;;5.00;;
3149;SDS011;32503;47.748;8.960;2023-03-31T07:29:38;6.37;;;5.80;;
3149;SDS011;32503;47.748;8.960;2023-03-31T07:32:06;7.40;;;6.10;;
3149;SDS011;32503;47.748;8.960;2023-03-31T07:34:33;5.93;;;5.53;;
3149;SDS011;32503;47.748;8.960;2023-03-31T07:37:01;7.23;;;6.40;;
3149;SDS011;32503;47.748;8.960;2023-03-31T07:39:28;6.63;;;5.60;;
3149;SDS011;32503;47.748;8.960;2023-03-31T07:41:55;7.83;;;6.10;;
3149;SDS011;32503;47.748;8.960;2023-03-31T07:44:22;7.80;;;6.00;;
3149;SDS011;32503;47.748;8.960;2023-03-31T07:46:49;15.20;;;6.60;;
3149;SDS011;32503;47.748;8.960;2023-03-31T07:49:17;5.83;;;5.30;;
3149;SDS011;32503;47.748;8.960;2023-03-31T07:51:44;9.63;;;6.43;;
3149;SDS011;32503;47.748;8.960;2023-03-31T07:54:11;6.77;;;6.07;;
3149;SDS011;32503;47.748;8.960;2023-03-31T07:56:39;9.67;;;6.60;;
3149;SDS011;32503;47.748;8.960;2023-03-31T07:59:06;5.67;;;5.17;;
3149;SDS011;32503;47.748;8.960;2023-03-31T08:01:33;6.23;;;5.73;;
3149;SDS011;32503;47.748;8.960;2023-03-31T08:04:00;4.07;;;3.73;;
3149;SDS011;32503;47.748;8.960;2023-03-31T08:06:29;6.80;;;3.17;;
3149;SDS011;32503;47.748;8.960;2023-03-31T08:08:56;4.10;;;2.73;;
3149;SDS011;32503;47.748;8.960;2023-03-31T08:11:24;1.90;;;1.80;;
3149;SDS011;32503;47.748;8.960;2023-03-31T08:13:51;2.20;;;2.10;;
3149;SDS011;32503;47.748;8.960;2023-03-31T08:16:19;1.90;;;1.80;;
3149;SDS011;32503;47.748;8.960;2023-03-31T08:18:46;3.10;;;1.73;;
3149;SDS011;32503;47.748;8.960;2023-03-31T08:21:13;2.13;;;2.03;;
3149;SDS011;32503;47.748;8.960;2023-03-31T08:23:42;2.10;;;1.90;;
3149;SDS011;32503;47.748;8.960;2023-03-31T08:26:09;1.93;;;1.70;;
3149;SDS011;32503;47.748;8.960;2023-03-31T08:28:38;2.30;;;1.77;;
3149;SDS011;32503;47.748;8.960;2023-03-31T08:31:05;1.53;;;1.43;;
3149;SDS011;32503;47.748;8.960;2023-03-31T08:33:34;2.60;;;2.40;;
3149;SDS011;32503;47.748;8.960;2023-03-31T08:36:02;1.77;;;1.67;;
3149;SDS011;32503;47.748;8.960;2023-03-31T08:38:32;2.90;;;1.80;;
3149;SDS011;32503;47.748;8.960;2023-03-31T08:41:03;1.70;;;1.60;;
3149;SDS011;32503;47.748;8.960;2023-03-31T08:43:33;1.90;;;1.70;;
3149;SDS011;32503;47.748;8.960;2023-03-31T08:46:07;1.50;;;1.40;;
3149;SDS011;32503;47.748;8.960;2023-03-31T08:48:40;2.10;;;1.87;;
3149;SDS011;32503;47.748;8.960;2023-03-31T08:51:14;1.70;;;1.60;;
3149;SDS011;32503;47.748;8.960;2023-03-31T08:53:46;2.30;;;2.10;;
3149;SDS011;32503;47.748;8.960;2023-03-31T08:56:19;1.60;;;1.50;;
3149;SDS011;32503;47.748;8.960;2023-03-31T08:58:51;2.37;;;2.17;;
3149;SDS011;32503;47.748;8.960;2023-03-31T09:01:21;2.17;;;1.87;;
3149;SDS011;32503;47.748;8.960;2023-03-31T09:04:01;2.23;;;2.03;;
3149;SDS011;32503;47.748;8.960;2023-03-31T09:06:46;1.60;;;1.50;;
3149;SDS011;32503;47.748;8.960;2023-03-31T09:09:22;2.13;;;1.80;;
3149;SDS011;32503;47.748;8.960;2023-03-31T09:12:06;2.80;;;1.90;;
3149;SDS011;32503;47.748;8.960;2023-03-31T09:14:40;1.60;;;1.50;;
3149;SDS011;32503;47.748;8.960;2023-03-31T09:17:15;2.90;;;1.70;;
3149;SDS011;32503;47.748;8.960;2023-03-31T09:19:47;1.87;;;1.67;;
3149;SDS011;32503;47.748;8.960;2023-03-31T09:22:21;2.33;;;1.70;;
3149;SDS011;32503;47.748;8.960;2023-03-31T09:24:54;1.70;;;1.60;;
3149;SDS011;32503;47.748;8.960;2023-03-31T09:27:29;2.30;;;2.10;;
3149;SDS011;32503;47.748;8.960;2023-03-31T09:30:01;2.33;;;2.13;;
3149;SDS011;32503;47.748;8.960;2023-03-31T09:32:36;1.60;;;1.50;;
3149;SDS011;32503;47.748;8.960;2023-03-31T09:35:12;1.80;;;1.40;;
3149;SDS011;32503;47.748;8.960;2023-03-31T09:37:45;2.30;;;1.50;;
3149;SDS011;32503;47.748;8.960;2023-03-31T09:40:15;1.60;;;1.50;;
3149;SDS011;32503;47.748;8.960;2023-03-31T09:42:47;3.20;;;2.07;;
3149;SDS011;32503;47.748;8.960;2023-03-31T09:45:23;2.00;;;1.90;;
3149;SDS011;32503;47.748;8.960;2023-03-31T09:47:50;1.53;;;1.40;;
3149;SDS011;32503;47.748;8.960;2023-03-31T09:50:21;3.70;;;1.77;;
3149;SDS011;32503;47.748;8.960;2023-03-31T09:52:51;2.20;;;1.80;;
3149;SDS011;32503;47.748;8.960;2023-03-31T09:55:22;4.63;;;2.23;;
3149;SDS011;32503;47.748;8.960;2023-03-31T09:57:55;1.40;;;1.30;;
3149;SDS011;32503;47.748;8.960;2023-03-31T10:00:25;1.60;;;1.43;;
3149;SDS011;32503;47.748;8.960;2023-03-31T10:02:53;1.67;;;1.30;;
3149;SDS011;32503;47.748;8.960;2023-03-31T10:05:26;1.57;;;1.47;;
3149;SDS011;32503;47.748;8.960;2023-03-31T10:08:11;1.67;;;1.27;;
3149;SDS011;32503;47.748;8.960;2023-03-31T10:10:50;4.20;;;1.47;;
3149;SDS011;32503;47.748;8.960;2023-03-31T10:13:21;2.60;;;1.50;;
3149;SDS011;32503;47.748;8.960;2023-03-31T10:15:51;1.30;;;1.20;;
3149;SDS011;32503;47.748;8.960;2023-03-31T10:18:19;1.20;;;1.10;;
3149;SDS011;32503;47.748;8.960;2023-03-31T10:20:58;1.10;;;1.00;;
3149;SDS011;32503;47.748;8.960;2023-03-31T10:23:28;1.77;;;1.10;;
3149;SDS011;32503;47.748;8.960;2023-03-31T10:25:58;1.47;;;1.27;;
3149;SDS011;32503;47.748;8.960;2023-03-31T10:28:29;1.97;;;1.27;;
3149;SDS011;32503;47.748;8.960;2023-03-31T10:30:59;1.40;;;1.30;;
3149;SDS011;32503;47.748;8.960;2023-03-31T10:33:29;7.63;;;1.27;;
3149;SDS011;32503;47.748;8.960;2023-03-31T10:35:59;1.30;;;1.20;;
3149;SDS011;32503;47.748;8.960;2023-03-31T10:38:28;1.40;;;1.27;;
3149;SDS011;32503;47.748;8.960;2023-03-31T10:41:00;1.30;;;1.20;;
3149;SDS011;32503;47.748;8.960;2023-03-31T10:43:29;1.00;;;0.90;;
3149;SDS011;32503;47.748;8.960;2023-03-31T10:46:03;1.30;;;1.07;;
3149;SDS011;32503;47.748;8.960;2023-03-31T10:48:32;1.50;;;1.40;;
3149;SDS011;32503;47.748;8.960;2023-03-31T10:51:03;2.67;;;1.93;;
3149;SDS011;32503;47.748;8.960;2023-03-31T10:53:40;0.90;;;0.90;;
3149;SDS011;32503;47.748;8.960;2023-03-31T10:56:12;1.63;;;1.30;;
3149;SDS011;32503;47.748;8.960;2023-03-31T11:05:13;1.57;;;1.50;;
3149;SDS011;32503;47.748;8.960;2023-03-31T11:07:49;4.13;;;1.60;;
3149;SDS011;32503;47.748;8.960;2023-03-31T11:10:36;4.03;;;1.37;;
3149;SDS011;32503;47.748;8.960;2023-03-31T11:13:19;1.30;;;1.20;;
3149;SDS011;32503;47.748;8.960;2023-03-31T11:15:56;1.40;;;1.30;;
3149;SDS011;32503;47.748;8.960;2023-03-31T11:18:35;0.93;;;0.90;;
3149;SDS011;32503;47.748;8.960;2023-03-31T11:21:19;1.47;;;1.10;;
3149;SDS011;32503;47.748;8.960;2023-03-31T11:23:57;1.43;;;1.33;;
3149;SDS011;32503;47.748;8.960;2023-03-31T11:26:38;4.90;;;1.43;;
3149;SDS011;32503;47.748;8.960;2023-03-31T11:29:19;2.33;;;1.63;;
3149;SDS011;32503;47.748;8.960;2023-03-31T11:32:01;4.40;;;1.07;;
3149;SDS011;32503;47.748;8.960;2023-03-31T11:34:58;0.90;;;0.90;;
3149;SDS011;32503;47.748;8.960;2023-03-31T11:37:42;1.93;;;1.23;;
3149;SDS011;32503;47.748;8.960;2023-03-31T11:40:32;1.00;;;1.00;;
3149;SDS011;32503;47.748;8.960;2023-03-31T11:43:09;3.63;;;1.50;;
3149;SDS011;32503;47.748;8.960;2023-03-31T11:45:50;0.83;;;0.83;;
3149;SDS011;32503;47.748;8.960;2023-03-31T11:48:25;1.67;;;1.57;;
3149;SDS011;32503;47.748;8.960;2023-03-31T11:51:05;1.10;;;0.97;;
3149;SDS011;32503;47.748;8.960;2023-03-31T11:53:39;2.30;;;1.20;;
3149;SDS011;32503;47.748;8.960;2023-03-31T11:56:08;1.33;;;1.07;;
3149;SDS011;32503;47.748;8.960;2023-03-31T11:58:39;2.60;;;1.50;;
3149;SDS011;32503;47.748;8.960;2023-03-31T12:01:14;3.47;;;1.20;;
3149;SDS011;32503;47.748;8.960;2023-03-31T12:03:50;1.17;;;1.07;;
3149;SDS011;32503;47.748;8.960;2023-03-31T12:06:24;1.40;;;1.30;;
3149;SDS011;32503;47.748;8.960;2023-03-31T12:09:01;1.73;;;1.10;;
3149;SDS011;32503;47.748;8.960;2023-03-31T12:11:42;1.53;;;1.00;;
3149;SDS011;32503;47.748;8.960;2023-03-31T12:14:20;2.43;;;1.07;;
3149;SDS011;32503;47.748;8.960;2023-03-31T12:16:56;1.20;;;1.00;;
3149;SDS011;32503;47.748;8.960;2023-03-31T12:19:33;2.07;;;1.50;;
3149;SDS011;32503;47.748;8.960;2023-03-31T12:22:10;2.33;;;2.13;;
3149;SDS011;32503;47.748;8.960;2023-03-31T12:24:41;2.73;;;1.30;;
3149;SDS011;32503;47.748;8.960;2023-03-31T12:27:10;2.20;;;0.80;;
3149;SDS011;32503;47.748;8.960;2023-03-31T12:29:43;1.13;;;1.03;;
3149;SDS011;32503;47.748;8.960;2023-03-31T12:32:14;1.43;;;1.33;;
3149;SDS011;32503;47.748;8.960;2023-03-31T12:34:50;3.73;;;1.00;;
3149;SDS011;32503;47.748;8.960;2023-03-31T12:37:34;3.13;;;1.10;;
3149;SDS011;32503;47.748;8.960;2023-03-31T12:40:30;1.10;;;0.70;;
3149;SDS011;32503;47.748;8.960;2023-03-31T12:43:12;1.67;;;0.80;;
3149;SDS011;32503;47.748;8.960;2023-03-31T12:46:29;0.60;;;0.50;;
3149;SDS011;32503;47.748;8.960;2023-03-31T12:49:20;1.80;;;0.60;;
3149;SDS011;32503;47.748;8.960;2023-03-31T12:52:03;7.27;;;0.43;;
3149;SDS011;32503;47.748;8.960;2023-03-31T12:54:44;1.37;;;0.70;;
3149;SDS011;32503;47.748;8.960;2023-03-31T12:57:46;2.70;;;0.63;;
3149;SDS011;32503;47.748;8.960;2023-03-31T13:00:17;0.77;;;0.43;;
3149;SDS011;32503;47.748;8.960;2023-03-31T13:02:48;0.67;;;0.50;;
3149;SDS011;32503;47.748;8.960;2023-03-31T13:11:19;0.80;;;0.70;;
3149;SDS011;32503;47.748;8.960;2023-03-31T13:13:54;0.70;;;0.40;;
3149;SDS011;32503;47.748;8.960;2023-03-31T13:16:26;1.27;;;0.50;;
3149;SDS011;32503;47.748;8.960;2023-03-31T13:18:53;1.93;;;0.50;;
3149;SDS011;32503;47.748;8.960;2023-03-31T13:21:21;1.00;;;0.50;;
3149;SDS011;32503;47.748;8.960;2023-03-31T13:23:49;0.60;;;0.40;;
3149;SDS011;32503;47.748;8.960;2023-03-31T13:26:38;1.23;;;0.50;;
3149;SDS011;32503;47.748;8.960;2023-03-31T13:29:21;0.70;;;0.50;;
3149;SDS011;32503;47.748;8.960;2023-03-31T13:34:48;1.43;;;0.67;;
3149;SDS011;32503;47.748;8.960;2023-03-31T13:37:29;1.03;;;0.70;;
3149;SDS011;32503;47.748;8.960;2023-03-31T13:40:21;0.80;;;0.43;;
3149;SDS011;32503;47.748;8.960;2023-03-31T13:43:12;0.90;;;0.70;;
3149;SDS011;32503;47.748;8.960;2023-03-31T13:49:32;0.70;;;0.50;;
3149;SDS011;32503;47.748;8.960;2023-03-31T13:52:20;0.73;;;0.70;;
3149;SDS011;32503;47.748;8.960;2023-03-31T13:58:30;1.43;;;0.60;;
3149;SDS011;32503;47.748;8.960;2023-03-31T14:04:26;0.70;;;0.60;;
3149;SDS011;32503;47.748;8.960;2023-03-31T14:07:16;0.80;;;0.50;;
3149;SDS011;32503;47.748;8.960;2023-03-31T14:09:51;0.83;;;0.60;;
3149;SDS011;32503;47.748;8.960;2023-03-31T14:12:21;0.80;;;0.60;;
3149;SDS011;32503;47.748;8.960;2023-03-31T14:14:56;3.37;;;0.60;;
3149;SDS011;32503;47.748;8.960;2023-03-31T14:17:25;0.60;;;0.50;;
3149;SDS011;32503;47.748;8.960;2023-03-31T14:20:02;1.17;;;0.50;;
3149;SDS011;32503;47.748;8.960;2023-03-31T14:22:52;0.73;;;0.60;;
3149;SDS011;32503;47.748;8.960;2023-03-31T14:25:37;0.60;;;0.50;;
3149;SDS011;32503;47.748;8.960;2023-03-31T14:28:20;1.17;;;0.60;;
3149;SDS011;32503;47.748;8.960;2023-03-31T14:31:09;1.10;;;0.80;;
3149;SDS011;32503;47.748;8.960;2023-03-31T14:33:47;1.00;;;0.83;;
3149;SDS011;32503;47.748;8.960;2023-03-31T14:36:32;0.87;;;0.87;;
3149;SDS011;32503;47.748;8.960;2023-03-31T14:39:07;1.00;;;0.87;;
3149;SDS011;32503;47.748;8.960;2023-03-31T14:41:37;1.27;;;1.17;;
3149;SDS011;32503;47.748;8.960;2023-03-31T14:44:06;1.97;;;1.27;;
3149;SDS011;32503;47.748;8.960;2023-03-31T14:46:40;2.20;;;1.03;;
3149;SDS011;32503;47.748;8.960;2023-03-31T14:49:13;1.60;;;1.50;;
3149;SDS011;32503;47.748;8.960;2023-03-31T14:51:45;2.10;;;1.00;;
3149;SDS011;32503;47.748;8.960;2023-03-31T14:54:14;1.23;;;1.13;;
3149;SDS011;32503;47.748;8.960;2023-03-31T14:56:43;2.37;;;1.20;;
3149;SDS011;32503;47.748;8.960;2023-03-31T14:59:17;1.47;;;1.37;;
3149;SDS011;32503;47.748;8.960;2023-03-31T15:01:47;1.10;;;0.70;;
3149;SDS011;32503;47.748;8.960;2023-03-31T15:04:16;2.90;;;0.83;;
3149;SDS011;32503;47.748;8.960;2023-03-31T15:06:47;3.53;;;0.90;;
3149;SDS011;32503;47.748;8.960;2023-03-31T15:09:17;2.93;;;0.90;;
3149;SDS011;32503;47.748;8.960;2023-03-31T15:11:52;0.73;;;0.67;;
3149;SDS011;32503;47.748;8.960;2023-03-31T15:14:24;3.03;;;0.67;;
3149;SDS011;32503;47.748;8.960;2023-03-31T15:16:55;1.40;;;0.70;;
3149;SDS011;32503;47.748;8.960;2023-03-31T15:19:22;1.13;;;0.70;;
3149;SDS011;32503;47.748;8.960;2023-03-31T15:21:53;1.77;;;0.50;;
3149;SDS011;32503;47.748;8.960;2023-03-31T15:24:25;2.37;;;1.20;;
3149;SDS011;32503;47.748;8.960;2023-03-31T15:26:55;1.40;;;0.70;;
3149;SDS011;32503;47.748;8.960;2023-03-31T15:29:28;2.07;;;0.53;;
3149;SDS011;32503;47.748;8.960;2023-03-31T15:32:01;0.80;;;0.70;;
3149;SDS011;32503;47.748;8.960;2023-03-31T15:34:32;0.80;;;0.80;;
3149;SDS011;32503;47.748;8.960;2023-03-31T15:37:01;2.40;;;0.90;;
3149;SDS011;32503;47.748;8.960;2023-03-31T15:39:31;0.70;;;0.50;;
3149;SDS011;32503;47.748;8.960;2023-03-31T15:42:00;0.70;;;0.53;;
3149;SDS011;32503;47.748;8.960;2023-03-31T15:44:38;0.87;;;0.53;;
3149;SDS011;32503;47.748;8.960;2023-03-31T15:47:11;1.80;;;0.60;;
3149;SDS011;32503;47.748;8.960;2023-03-31T15:49:46;2.60;;;0.57;;
3149;SDS011;32503;47.748;8.960;2023-03-31T15:52:20;1.57;;;0.70;;
3149;SDS011;32503;47.748;8.960;2023-03-31T15:54:58;1.43;;;0.70;;
3149;SDS011;32503;47.748;8.960;2023-03-31T15:57:30;1.10;;;0.73;;
3149;SDS011;32503;47.748;8.960;2023-03-31T16:00:01;4.13;;;0.73;;
3149;SDS011;32503;47.748;8.960;2023-03-31T16:02:36;0.97;;;0.50;;
3149;SDS011;32503;47.748;8.960;2023-03-31T16:05:18;1.00;;;0.80;;
3149;SDS011;32503;47.748;8.960;2023-03-31T16:07:55;0.80;;;0.80;;
3149;SDS011;32503;47.748;8.960;2023-03-31T16:10:23;0.80;;;0.70;;
3149;SDS011;32503;47.748;8.960;2023-03-31T16:12:51;0.73;;;0.60;;